Time;durP1;ratioP1;P1;durP2;ratioP2;P2;SDS_P1;SDS_P2;PMS_P1;PMS_P2;Temp;Humidity;BMP_temperature;BMP_pressure;BME280_temperature;BME280_humidity;BME280_pressure;Samples;Min_cycle;Max_cycle;Signal;HPM_P1;HPM_P2
2021/06/05 00:00:15;;;;;;;11.40;7.47;;;;;;;14.16;62.00;100845.67;1779765;78;20204;-71
2021/06/05 00:02:41;;;;;;;13.13;7.10;;;;;;;14.12;62.21;100841.13;1781345;78;21460;-70
2021/06/05 00:05:08;;;;;;;13.83;7.60;;;;;;;14.07;62.52;100844.61;1786482;79;21812;-68
2021/06/05 00:07:35;;;;;;;15.03;7.13;;;;;;;14.04;62.70;100845.16;1780764;78;21262;-69
2021/06/05 00:10:05;;;;;;;12.47;7.53;;;;;;;14.01;62.89;100838.98;1776808;78;21833;-68
2021/06/05 00:12:32;;;;;;;11.47;7.37;;;;;;;13.98;63.01;100838.19;1787633;78;21304;-68
2021/06/05 00:14:58;;;;;;;12.23;7.33;;;;;;;13.95;63.12;100842.25;1776805;79;21319;-68
2021/06/05 00:17:25;;;;;;;10.90;7.43;;;;;;;13.91;63.17;100842.50;1768348;79;21799;-68
2021/06/05 00:19:53;;;;;;;10.90;7.73;;;;;;;13.88;63.32;100839.55;1786592;79;21249;-68
2021/06/05 00:22:20;;;;;;;13.53;7.07;;;;;;;13.82;63.38;100835.55;1783543;78;21393;-68
2021/06/05 00:24:48;;;;;;;12.67;7.70;;;;;;;13.80;63.50;100837.70;1782032;79;21083;-68
2021/06/05 00:27:14;;;;;;;13.30;7.73;;;;;;;13.77;63.63;100834.21;1779652;78;21258;-68
2021/06/05 00:29:41;;;;;;;12.70;7.87;;;;;;;13.75;63.77;100828.30;1779110;79;21272;-68
2021/06/05 00:32:08;;;;;;;15.27;7.53;;;;;;;13.72;63.89;100831.55;1792675;78;21344;-68
2021/06/05 00:34:36;;;;;;;11.17;7.23;;;;;;;13.68;64.07;100828.31;1781487;79;21715;-69
2021/06/05 00:37:04;;;;;;;15.23;7.50;;;;;;;13.67;64.32;100835.56;1783570;79;21442;-69
2021/06/05 00:39:31;;;;;;;12.43;7.43;;;;;;;13.63;64.56;100829.14;1780913;79;21546;-68
2021/06/05 00:41:59;;;;;;;10.90;7.17;;;;;;;13.62;64.70;100828.85;1784909;78;21287;-69
2021/06/05 00:44:28;;;;;;;13.67;7.80;;;;;;;13.58;64.97;100827.25;1776707;79;21261;-69
2021/06/05 00:46:55;;;;;;;12.33;6.77;;;;;;;13.55;65.08;100830.47;1794256;79;21163;-69
2021/06/05 00:49:23;;;;;;;11.93;7.20;;;;;;;13.53;65.31;100831.84;1780406;79;21107;-69
2021/06/05 00:51:54;;;;;;;11.90;7.40;;;;;;;13.51;65.44;100833.97;1781579;78;21768;-68
2021/06/05 00:54:25;;;;;;;12.30;7.20;;;;;;;13.47;65.58;100836.94;1788235;79;21715;-69
2021/06/05 00:56:55;;;;;;;13.23;6.87;;;;;;;13.43;65.70;100837.21;1791596;78;21350;-69
2021/06/05 00:59:24;;;;;;;12.57;6.93;;;;;;;13.41;65.74;100835.32;1785454;79;21216;-68
2021/06/05 01:01:52;;;;;;;14.43;7.40;;;;;;;13.39;65.83;100838.26;1785850;79;22857;-68
2021/06/05 01:04:20;;;;;;;11.63;6.20;;;;;;;13.38;65.95;100836.66;1793998;78;21195;-71
2021/06/05 01:07:03;;;;;;;12.17;6.83;;;;;;;13.38;65.98;100834.77;1777848;79;21367;-69
2021/06/05 01:09:46;;;;;;;10.72;7.03;;;;;;;13.38;65.97;100836.12;1771546;79;21152;-67
2021/06/05 01:12:27;;;;;;;11.25;6.90;;;;;;;13.38;65.91;100836.12;1771589;78;21109;-69
2021/06/05 01:14:58;;;;;;;15.83;7.05;;;;;;;13.38;65.84;100839.34;1771335;79;21482;-68
2021/06/05 01:17:44;;;;;;;8.97;6.40;;;;;;;13.35;65.85;100837.99;1809114;79;21090;-68
2021/06/05 01:20:29;;;;;;;13.88;6.50;;;;;;;13.33;65.85;100833.45;1761500;81;21208;-69
2021/06/05 01:23:39;;;;;;;11.08;6.70;;;;;;;13.32;65.83;100833.70;1784953;78;21129;-68
2021/06/05 01:26:16;;;;;;;12.10;6.33;;;;;;;13.30;65.91;100827.28;1789342;78;21078;-69
2021/06/05 01:29:01;;;;;;;10.18;6.08;;;;;;;13.29;65.80;100831.04;1800759;77;21017;-68
2021/06/05 01:31:36;;;;;;;11.30;6.33;;;;;;;13.28;65.78;100830.75;1793816;78;21114;-68
2021/06/05 01:34:03;;;;;;;11.97;6.60;;;;;;;13.27;65.78;100825.12;1761300;78;21125;-69
2021/06/05 01:36:31;;;;;;;11.28;6.30;;;;;;;13.26;65.65;100826.72;1792851;79;20979;-70
2021/06/05 01:39:01;;;;;;;8.95;6.08;;;;;;;13.26;65.61;100828.89;1773567;78;20940;-69
2021/06/05 01:41:28;;;;;;;14.40;6.70;;;;;;;13.26;65.61;100825.38;1810343;78;20972;-68
2021/06/05 01:43:56;;;;;;;10.72;6.55;;;;;;;13.26;65.58;100826.21;1795565;78;21037;-68
2021/06/05 01:46:31;;;;;;;8.38;5.70;;;;;;;13.27;65.56;100828.35;1805417;78;21391;-68
2021/06/05 01:48:59;;;;;;;13.60;6.50;;;;;;;13.26;65.52;100826.72;1774777;78;21116;-68
2021/06/05 01:51:28;;;;;;;13.38;5.65;;;;;;;13.25;65.51;100829.95;1775060;79;21107;-68
2021/06/05 01:54:08;;;;;;;10.65;6.22;;;;;;;13.23;65.59;100827.25;1794672;78;21074;-67
2021/06/05 01:56:46;;;;;;;11.03;5.95;;;;;;;13.21;65.63;100834.21;1793407;78;21457;-69
2021/06/05 01:59:16;;;;;;;9.00;5.85;;;;;;;13.18;65.85;100830.72;1787216;79;21094;-69
2021/06/05 02:01:45;;;;;;;10.82;6.08;;;;;;;13.16;66.06;100827.48;1805202;78;21065;-68
2021/06/05 02:04:13;;;;;;;10.88;6.25;;;;;;;13.13;66.21;100833.41;1786848;78;21034;-68
2021/06/05 02:06:47;;;;;;;10.35;5.80;;;;;;;13.09;66.27;100830.44;1800918;78;20987;-68
2021/06/05 02:09:17;;;;;;;14.13;6.72;;;;;;;13.06;66.30;100824.30;1785042;79;21129;-69
2021/06/05 02:11:49;;;;;;;9.35;5.87;;;;;;;13.04;66.41;100830.45;1782603;79;20983;-69
2021/06/05 02:14:37;;;;;;;11.40;5.85;;;;;;;13.01;66.52;100828.84;1795091;78;21011;-69
2021/06/05 02:17:10;;;;;;;9.08;5.80;;;;;;;12.98;66.51;100828.02;1790246;78;21073;-68
2021/06/05 02:19:43;;;;;;;9.87;5.30;;;;;;;12.95;66.47;100825.33;1806614;78;21082;-68
2021/06/05 02:22:16;;;;;;;10.43;6.05;;;;;;;12.95;66.28;100823.19;1782389;78;21285;-68
2021/06/05 02:24:46;;;;;;;;;;;;;;;12.94;66.12;100825.61;1784605;78;21093;-69
2021/06/05 02:27:19;;;;;;;8.48;5.17;;;;;;;12.92;65.95;100823.18;1804410;78;20402;-69
2021/06/05 02:29:47;;;;;;;9.35;5.28;;;;;;;12.90;65.90;100824.80;1792812;78;21050;-68
2021/06/05 02:32:18;;;;;;;13.18;5.05;;;;;;;12.90;65.80;100825.34;1789886;78;20998;-68
2021/06/05 02:34:45;;;;;;;12.30;5.05;;;;;;;12.89;65.70;100824.51;1784901;78;21839;-68
2021/06/05 02:37:17;;;;;;;14.80;5.37;;;;;;;12.90;65.69;100819.44;1786909;78;20995;-69
2021/06/05 02:39:44;;;;;;;10.32;4.87;;;;;;;12.92;65.57;100817.81;1823244;77;21298;-69
2021/06/05 02:42:16;;;;;;;8.03;4.95;;;;;;;12.95;65.46;100815.15;1808325;77;21025;-68
2021/06/05 02:44:47;;;;;;;7.70;4.40;;;;;;;12.97;65.34;100815.70;1779508;78;21078;-70
2021/06/05 02:47:15;;;;;;;8.78;4.80;;;;;;;12.98;65.16;100815.95;1767247;79;26605;-67
2021/06/05 02:49:42;;;;;;;6.78;4.20;;;;;;;12.98;65.08;100814.62;1757640;80;21101;-68
2021/06/05 02:52:34;;;;;;;7.22;4.50;;;;;;;12.99;65.09;100818.36;1799073;78;21038;-69
2021/06/05 02:55:14;;;;;;;;;;;;;;;13.01;65.11;100808.72;1785682;78;21070;-68
2021/06/05 02:57:44;;;;;;;10.43;4.97;;;;;;;13.04;65.16;100820.27;1802777;78;20170;-68
2021/06/05 03:00:38;;;;;;;8.63;4.78;;;;;;;13.04;65.25;100817.04;1778259;78;21155;-69
2021/06/05 03:03:08;;;;;;;9.23;4.53;;;;;;;13.07;65.34;100820.53;1784594;78;21077;-70
2021/06/05 03:05:34;;;;;;;7.30;4.53;;;;;;;13.10;65.47;100816.52;1807066;78;21027;-68
2021/06/05 03:08:04;;;;;;;8.65;4.30;;;;;;;13.11;65.57;100818.12;1791834;78;20994;-68
2021/06/05 03:10:33;;;;;;;7.22;4.30;;;;;;;13.12;65.68;100820.52;1760335;78;21086;-68
2021/06/05 03:13:02;;;;;;;7.08;4.60;;;;;;;13.15;65.76;100819.98;1792331;78;21085;-68
2021/06/05 03:15:29;;;;;;;7.53;4.30;;;;;;;13.19;65.87;100821.59;1791170;78;21164;-68
2021/06/05 03:17:57;;;;;;;8.77;4.60;;;;;;;13.22;65.93;100828.31;1791480;78;20995;-69
2021/06/05 03:20:27;;;;;;;10.00;4.60;;;;;;;13.21;65.95;100826.16;1785668;78;21251;-69
2021/06/05 03:22:57;;;;;;;10.63;5.20;;;;;;;13.20;65.91;100820.55;1803846;78;21191;-69
2021/06/05 03:25:24;;;;;;;8.23;4.67;;;;;;;13.19;66.01;100825.61;1816353;78;21155;-69
2021/06/05 03:27:51;;;;;;;8.88;4.97;;;;;;;13.18;66.18;100824.02;1776633;78;21200;-69
2021/06/05 03:30:20;;;;;;;8.55;5.12;;;;;;;13.20;66.46;100823.77;1774066;78;20939;-68
2021/06/05 03:32:48;;;;;;;9.30;5.40;;;;;;;13.21;66.57;100819.45;1800989;78;20935;-68
2021/06/05 03:35:15;;;;;;;8.50;5.33;;;;;;;13.25;66.81;100819.76;1797095;78;21522;-69
2021/06/05 03:37:42;;;;;;;8.05;5.67;;;;;;;13.26;66.94;100815.48;1781813;78;21762;-68
2021/06/05 03:40:12;;;;;;;7.17;5.40;;;;;;;13.27;66.99;100819.77;1786329;79;20936;-69
2021/06/05 03:42:39;;;;;;;9.37;5.27;;;;;;;13.31;67.04;100818.15;1791353;78;22201;-68
2021/06/05 03:45:09;;;;;;;9.10;5.50;;;;;;;13.32;67.18;100822.43;1790371;78;21604;-69
2021/06/05 03:47:36;;;;;;;10.15;5.60;;;;;;;13.33;67.36;100821.38;1785113;78;21991;-69
2021/06/05 03:50:06;;;;;;;11.33;5.97;;;;;;;13.36;67.56;100820.84;1789650;78;21066;-69
2021/06/05 03:52:33;;;;;;;10.33;5.77;;;;;;;13.41;67.79;100817.88;1807732;78;21273;-69
2021/06/05 03:55:01;;;;;;;8.80;5.40;;;;;;;13.47;67.98;100811.44;1787714;78;21229;-69
2021/06/05 03:57:28;;;;;;;10.00;5.60;;;;;;;13.54;68.19;100814.66;1788946;78;21303;-68
2021/06/05 03:59:56;;;;;;;10.63;5.93;;;;;;;13.67;68.38;100813.30;1798844;78;21761;-67
2021/06/05 04:02:24;;;;;;;11.10;5.60;;;;;;;13.80;68.44;100812.19;1786925;78;22029;-69
2021/06/05 04:04:51;;;;;;;10.43;6.10;;;;;;;13.96;68.43;100812.16;1779324;78;21872;-67
2021/06/05 04:07:19;;;;;;;11.70;6.10;;;;;;;14.12;68.39;100809.70;1801094;78;21096;-68
2021/06/05 04:09:46;;;;;;;9.00;5.93;;;;;;;14.28;68.10;100811.24;1794638;78;21884;-69
2021/06/05 04:12:14;;;;;;;10.10;5.90;;;;;;;14.45;67.86;100814.92;1791267;78;21129;-69
2021/06/05 04:14:42;;;;;;;8.93;5.43;;;;;;;14.61;67.47;100813.00;1796956;78;21219;-68
2021/06/05 04:17:10;;;;;;;9.70;5.90;;;;;;;14.75;67.10;100811.29;1793188;78;21082;-68
2021/06/05 04:19:38;;;;;;;8.73;6.20;;;;;;;14.89;66.83;100799.91;1799578;78;21166;-68
2021/06/05 04:22:07;;;;;;;9.47;5.40;;;;;;;15.05;66.53;100804.64;1809268;78;21363;-70
2021/06/05 04:24:35;;;;;;;9.30;5.57;;;;;;;15.16;66.40;100804.27;1775651;78;21280;-69
2021/06/05 04:27:04;;;;;;;8.63;5.60;;;;;;;15.29;66.25;100796.64;1793736;78;21363;-69
2021/06/05 04:29:31;;;;;;;10.03;7.00;;;;;;;15.40;66.17;100804.88;1779771;78;21323;-69
2021/06/05 04:31:59;;;;;;;9.73;6.90;;;;;;;15.51;66.03;100801.57;1789602;79;21717;-68
2021/06/05 04:34:25;;;;;;;10.47;6.70;;;;;;;15.59;65.95;100800.39;1772250;78;21220;-68
2021/06/05 04:36:53;;;;;;;11.00;6.27;;;;;;;15.67;65.80;100802.51;1789699;78;21145;-68
2021/06/05 04:39:21;;;;;;;10.93;5.90;;;;;;;15.77;65.89;100790.83;1813148;78;21236;-68
2021/06/05 04:41:48;;;;;;;9.57;5.60;;;;;;;15.90;65.63;100796.87;1804575;78;21137;-67
2021/06/05 04:44:15;;;;;;;12.30;6.40;;;;;;;16.02;65.59;100799.16;1781661;78;21359;-69
2021/06/05 04:46:42;;;;;;;9.83;6.17;;;;;;;16.13;65.76;100799.86;1792151;78;21883;-69
2021/06/05 04:49:09;;;;;;;10.00;5.40;;;;;;;16.20;65.88;100786.83;1785056;78;21368;-69
2021/06/05 04:51:37;;;;;;;7.77;5.30;;;;;;;16.35;65.91;100786.64;1775416;79;21362;-70
2021/06/05 04:54:05;;;;;;;10.90;5.20;;;;;;;16.49;64.81;100785.93;1774450;78;21448;-69
2021/06/05 04:56:39;;;;;;;9.90;5.03;;;;;;;16.60;64.11;100788.73;1813549;78;21976;-69
2021/06/05 04:59:06;;;;;;;8.90;4.63;;;;;;;16.69;63.63;100785.63;1792380;78;21480;-69
2021/06/05 05:01:35;;;;;;;6.43;4.73;;;;;;;16.96;63.17;100780.93;1795121;78;21578;-69
2021/06/05 05:04:01;;;;;;;6.80;4.47;;;;;;;17.09;62.36;100777.48;1783890;78;21482;-69
2021/06/05 05:06:28;;;;;;;8.37;4.07;;;;;;;17.09;62.36;100777.48;1795426;78;21581;-68
2021/06/05 05:08:55;;;;;;;9.73;3.60;;;;;;;17.20;60.95;100775.41;1782535;78;21520;-69
2021/06/05 05:11:22;;;;;;;5.70;3.57;;;;;;;17.33;59.24;100788.69;1770635;78;21691;-68
2021/06/05 05:13:49;;;;;;;5.70;3.13;;;;;;;17.45;58.29;100781.48;1788964;78;21667;-69
2021/06/05 05:16:20;;;;;;;4.73;3.20;;;;;;;17.57;57.75;100774.50;1790807;78;21683;-68
2021/06/05 05:18:48;;;;;;;5.47;3.13;;;;;;;17.71;57.45;100776.41;1792776;78;21670;-70
2021/06/05 05:21:16;;;;;;;6.17;3.03;;;;;;;17.83;55.50;100778.63;1784507;78;21722;-68
2021/06/05 05:23:45;;;;;;;6.80;3.20;;;;;;;17.93;54.66;100777.91;1785196;78;21648;-69
2021/06/05 05:26:12;;;;;;;6.27;2.77;;;;;;;18.03;54.62;100776.87;1784650;79;21732;-69
2021/06/05 05:28:38;;;;;;;5.70;3.13;;;;;;;18.14;54.28;100767.47;1792049;78;21701;-69
2021/06/05 05:31:10;;;;;;;5.53;2.77;;;;;;;18.27;53.69;100768.00;1801934;78;21678;-69
2021/06/05 05:33:38;;;;;;;8.60;2.70;;;;;;;18.40;53.45;100765.02;1828284;78;21777;-69
2021/06/05 05:36:09;;;;;;;6.70;3.00;;;;;;;18.51;53.00;100760.97;1781684;78;21714;-70
2021/06/05 05:38:37;;;;;;;6.13;3.00;;;;;;;18.62;52.39;100759.38;1799513;78;21852;-69
2021/06/05 05:41:06;;;;;;;5.90;3.00;;;;;;;18.70;51.96;100754.05;1786339;78;21706;-69
2021/06/05 05:43:33;;;;;;;6.40;2.90;;;;;;;18.80;52.03;100756.31;1792117;78;21023;-68
2021/06/05 05:46:00;;;;;;;7.53;2.60;;;;;;;18.90;52.33;100766.33;1790201;78;21390;-69
2021/06/05 05:48:28;;;;;;;4.93;2.60;;;;;;;19.03;50.10;100751.69;1798027;78;21052;-68
2021/06/05 05:50:56;;;;;;;5.77;2.80;;;;;;;19.11;49.73;100753.64;1792356;78;20958;-69
2021/06/05 05:53:24;;;;;;;3.90;2.40;;;;;;;19.19;50.08;100755.61;1793095;78;21167;-69
2021/06/05 05:55:52;;;;;;;4.57;2.30;;;;;;;19.26;49.13;100758.67;1808040;78;21011;-69
2021/06/05 05:58:21;;;;;;;4.83;2.30;;;;;;;19.34;49.00;100757.11;1793654;78;21033;-71
2021/06/05 06:00:49;;;;;;;3.70;2.33;;;;;;;19.43;47.29;100746.56;1804719;78;21075;-70
2021/06/05 06:03:17;;;;;;;6.37;3.13;;;;;;;19.52;47.21;100743.91;1790188;78;21034;-69
2021/06/05 06:05:44;;;;;;;5.63;3.47;;;;;;;19.61;47.24;100745.28;1808062;78;21382;-69
2021/06/05 06:08:13;;;;;;;8.77;3.20;;;;;;;19.68;46.70;100737.55;1789872;78;20975;-70
2021/06/05 06:10:41;;;;;;;5.27;3.47;;;;;;;19.75;46.86;100733.03;1790263;78;21038;-69
2021/06/05 06:13:09;;;;;;;6.57;2.90;;;;;;;19.83;47.11;100731.68;1807273;78;20981;-69
2021/06/05 06:15:36;;;;;;;6.17;3.30;;;;;;;19.89;46.80;100727.71;1806230;78;20934;-70
2021/06/05 06:18:05;;;;;;;4.93;2.83;;;;;;;19.94;46.90;100725.96;1812171;78;21018;-68
2021/06/05 06:20:42;;;;;;;8.10;3.50;;;;;;;19.99;47.03;100727.19;1796842;78;21085;-69
2021/06/05 06:23:13;;;;;;;6.63;3.70;;;;;;;20.04;46.92;100725.13;1800771;78;21476;-69
2021/06/05 06:25:40;;;;;;;4.70;3.10;;;;;;;20.13;46.49;100722.41;1787857;79;21133;-69
2021/06/05 06:28:10;;;;;;;8.03;3.03;;;;;;;20.21;46.31;100723.56;1775205;78;21121;-69
2021/06/05 06:30:37;;;;;;;6.40;2.30;;;;;;;20.26;46.34;100732.31;1783207;78;22213;-68
2021/06/05 06:33:08;;;;;;;5.63;2.40;;;;;;;20.36;45.95;100722.51;1791965;78;21054;-68
2021/06/05 06:35:36;;;;;;;4.50;1.90;;;;;;;20.43;43.98;100719.88;1795217;78;26653;-68
2021/06/05 06:38:04;;;;;;;4.03;2.37;;;;;;;20.43;42.98;100718.52;1776965;79;21624;-68
2021/06/05 06:40:34;;;;;;;4.60;2.37;;;;;;;20.33;42.97;100720.43;1797200;78;21057;-69
2021/06/05 06:43:02;;;;;;;6.23;2.37;;;;;;;20.29;43.39;100714.05;1796761;78;21107;-68
2021/06/05 06:45:30;;;;;;;4.20;2.13;;;;;;;20.32;43.35;100709.34;1795594;78;21089;-68
2021/06/05 06:47:57;;;;;;;4.13;1.90;;;;;;;20.36;43.17;100704.08;1781934;78;21018;-69
2021/06/05 06:50:26;;;;;;;5.83;2.53;;;;;;;20.38;43.13;100712.71;1799475;78;21085;-68
2021/06/05 06:52:53;;;;;;;4.80;2.37;;;;;;;20.38;43.37;100710.00;1799330;78;21074;-69
2021/06/05 06:55:22;;;;;;;5.90;2.30;;;;;;;20.43;43.08;100704.95;1790184;79;21158;-68
2021/06/05 06:57:49;;;;;;;5.60;2.50;;;;;;;20.50;43.47;100707.98;1784355;78;21075;-68
2021/06/05 07:00:27;;;;;;;4.33;2.43;;;;;;;20.63;43.31;100696.19;1796532;78;21069;-69
2021/06/05 07:02:54;;;;;;;5.07;2.40;;;;;;;20.72;43.64;100698.91;1800819;78;21046;-69
2021/06/05 07:05:20;;;;;;;6.80;2.50;;;;;;;20.80;42.91;100696.19;1788015;78;21002;-68
2021/06/05 07:07:47;;;;;;;3.30;2.00;;;;;;;20.85;42.94;100704.71;1796591;79;21077;-69
2021/06/05 07:10:16;;;;;;;4.00;2.50;;;;;;;20.90;42.19;100698.33;1794343;78;21679;-68
2021/06/05 07:12:43;;;;;;;6.17;2.70;;;;;;;20.95;41.66;100694.08;1793255;78;21538;-68
2021/06/05 07:15:11;;;;;;;6.87;2.80;;;;;;;20.95;42.65;100698.14;1801936;78;21031;-69
2021/06/05 07:17:38;;;;;;;5.03;2.47;;;;;;;21.02;42.69;100700.59;1796055;78;21058;-69
2021/06/05 07:20:06;;;;;;;3.67;2.13;;;;;;;21.08;42.26;100702.58;1785842;78;21174;-69
2021/06/05 07:22:33;;;;;;;4.73;2.20;;;;;;;21.12;41.55;100698.09;1784024;78;21065;-69
2021/06/05 07:25:00;;;;;;;4.60;2.40;;;;;;;21.18;42.88;100697.36;1793743;78;21066;-69
2021/06/05 07:27:27;;;;;;;4.63;2.10;;;;;;;21.27;42.66;100687.27;1785849;79;21090;-70
2021/06/05 07:29:54;;;;;;;4.90;2.20;;;;;;;21.37;41.43;100687.50;1784741;78;21033;-70
2021/06/05 07:32:21;;;;;;;3.43;1.77;;;;;;;21.45;41.17;100679.86;1795495;78;21287;-69
2021/06/05 07:34:51;;;;;;;4.77;2.00;;;;;;;21.61;40.91;100684.17;1778621;79;21046;-69
2021/06/05 07:37:20;;;;;;;4.33;2.23;;;;;;;21.77;40.35;100681.13;1789159;78;21596;-69
2021/06/05 07:39:47;;;;;;;5.40;2.27;;;;;;;21.86;40.09;100683.23;1801121;78;21057;-68
2021/06/05 07:42:14;;;;;;;6.07;2.50;;;;;;;21.86;39.93;100676.44;1797657;78;21173;-69
2021/06/05 07:44:41;;;;;;;5.20;2.20;;;;;;;21.69;39.83;100680.06;1784157;78;21177;-69
2021/06/05 07:47:07;;;;;;;7.70;2.30;;;;;;;21.51;40.32;100671.19;1782577;79;21062;-68
2021/06/05 07:49:38;;;;;;;6.33;2.40;;;;;;;21.42;40.48;100665.56;1786185;78;33625;-68
2021/06/05 07:52:09;;;;;;;5.17;1.90;;;;;;;21.33;40.46;100660.72;1775061;79;21030;-69
2021/06/05 07:54:35;;;;;;;4.50;1.80;;;;;;;21.20;40.14;100663.89;1778315;79;21038;-68
2021/06/05 07:57:02;;;;;;;5.70;2.30;;;;;;;21.17;39.99;100663.18;1773908;79;21078;-69
2021/06/05 07:59:29;;;;;;;3.40;1.83;;;;;;;21.19;39.72;100656.84;1789791;78;21468;-68
2021/06/05 08:01:56;;;;;;;3.80;1.80;;;;;;;21.25;39.83;100648.75;1792279;78;21066;-68
2021/06/05 08:04:22;;;;;;;5.87;1.87;;;;;;;21.30;39.42;100649.38;1794865;79;21058;-69
2021/06/05 08:06:49;;;;;;;4.70;2.13;;;;;;;21.30;39.23;100654.81;1784834;78;21026;-69
2021/06/05 08:09:17;;;;;;;4.53;1.87;;;;;;;21.26;39.35;100654.44;1801242;78;21569;-69
2021/06/05 08:11:44;;;;;;;4.67;1.90;;;;;;;21.21;39.24;100654.61;1797127;78;21627;-68
2021/06/05 08:14:11;;;;;;;3.00;1.70;;;;;;;;;;1777259;79;21027;-68
2021/06/05 08:16:37;;;;;;;5.90;1.90;;;;;;;21.06;38.42;100650.53;1788264;79;21102;-69
2021/06/05 08:19:09;;;;;;;4.10;1.70;;;;;;;21.04;38.95;100650.05;1794521;78;21050;-69
2021/06/05 08:21:39;;;;;;;3.67;1.87;;;;;;;21.04;38.72;100649.48;1797523;78;21097;-69
2021/06/05 08:24:09;;;;;;;4.83;1.93;;;;;;;21.05;38.88;100647.55;1790213;78;21502;-69
2021/06/05 08:26:36;;;;;;;7.40;1.77;;;;;;;21.06;38.86;100641.02;1789412;78;21026;-69
2021/06/05 08:29:03;;;;;;;4.43;2.00;;;;;;;;;;1779990;78;21561;-69
2021/06/05 08:31:30;;;;;;;3.97;1.77;;;;;;;21.21;38.35;100634.23;1802061;78;21032;-69
2021/06/05 08:33:57;;;;;;;3.33;1.63;;;;;;;21.29;38.12;100637.49;1789919;78;21964;-68
2021/06/05 08:36:26;;;;;;;2.83;1.50;;;;;;;21.42;37.99;100638.39;1796784;78;20990;-68
2021/06/05 08:38:53;;;;;;;2.67;1.63;;;;;;;21.65;37.20;100632.92;1804866;78;21100;-69
2021/06/05 08:41:45;;;;;;;2.37;1.53;;;;;;;21.90;36.25;100626.27;1800748;78;21085;-68
2021/06/05 08:44:21;;;;;;;3.90;1.80;;;;;;;22.06;36.83;100621.03;1792174;78;21084;-68
2021/06/05 08:46:59;;;;;;;3.80;1.73;;;;;;;22.27;36.68;100619.09;1786886;78;21137;-69
2021/06/05 08:49:35;;;;;;;4.70;1.90;;;;;;;22.40;36.35;100626.74;1803731;78;20971;-68
2021/06/05 08:52:42;;;;;;;5.20;2.10;;;;;;;22.41;35.60;100622.91;1788824;78;21024;-69
2021/06/05 08:55:42;;;;;;;3.23;1.60;;;;;;;22.39;35.35;100623.23;1789569;78;21069;-68
2021/06/05 08:58:29;;;;;;;3.30;1.70;;;;;;;22.43;36.04;100620.63;1790656;78;21058;-69
2021/06/05 09:01:19;;;;;;;2.97;1.80;;;;;;;22.59;34.82;100618.86;1794419;78;21187;-68
2021/06/05 09:03:49;;;;;;;5.90;1.97;;;;;;;22.74;34.60;100611.17;1795590;78;21106;-69
2021/06/05 09:06:43;;;;;;;6.53;1.80;;;;;;;22.89;35.07;100614.04;1784050;78;21058;-69
2021/06/05 09:09:16;;;;;;;3.67;1.80;;;;;;;23.02;35.18;100616.81;1810025;78;21052;-68
2021/06/05 09:11:44;;;;;;;3.97;1.67;;;;;;;23.00;34.31;100614.98;1787901;78;21557;-68
2021/06/05 09:14:12;;;;;;;2.60;1.60;;;;;;;22.84;34.11;100610.19;1787293;78;21141;-68
2021/06/05 09:16:50;;;;;;;4.37;1.67;;;;;;;22.78;34.48;100612.91;1786381;78;21489;-68
2021/06/05 09:19:29;;;;;;;3.83;1.93;;;;;;;22.79;34.69;100615.05;1817772;77;22034;-67
2021/06/05 09:22:15;;;;;;;2.55;1.40;;;;;;;22.87;33.54;100599.20;1804088;77;21552;-68
2021/06/05 09:24:50;;;;;;;4.17;2.00;;;;;;;22.94;33.84;100608.98;1781738;79;21086;-69
2021/06/05 09:27:28;;;;;;;4.07;1.60;;;;;;;22.98;33.53;100609.89;1779255;79;21210;-67
2021/06/05 09:30:07;;;;;;;4.63;1.80;;;;;;;23.02;32.67;100601.27;1773167;79;21043;-68
2021/06/05 09:32:48;;;;;;;2.47;1.50;;;;;;;23.04;33.88;100594.92;1776212;78;21042;-69
2021/06/05 09:35:22;;;;;;;3.27;1.47;;;;;;;23.21;33.66;100590.38;1773212;80;20944;-69
2021/06/05 09:37:54;;;;;;;3.70;1.60;;;;;;;23.35;32.55;100590.81;1783555;78;21415;-69
2021/06/05 09:40:27;;;;;;;4.33;1.60;;;;;;;23.47;32.73;100590.80;1776189;78;21126;-69
2021/06/05 09:43:10;;;;;;;3.97;1.90;;;;;;;23.58;32.86;100586.45;1817771;77;21014;-68
2021/06/05 09:45:43;;;;;;;3.43;1.70;;;;;;;23.61;32.03;100577.59;1778770;79;21042;-69
2021/06/05 09:48:31;;;;;;;6.05;1.70;;;;;;;23.58;31.68;100581.00;1793351;79;21050;-69
2021/06/05 09:51:03;;;;;;;3.37;1.67;;;;;;;23.50;30.94;100577.06;1786780;79;21446;-69
2021/06/05 09:53:38;;;;;;;3.50;1.90;;;;;;;23.41;31.80;100578.55;1832087;77;21615;-68
2021/06/05 09:56:17;;;;;;;5.30;2.00;;;;;;;23.45;32.44;100576.71;1772524;79;21376;-68
2021/06/05 09:58:46;;;;;;;3.97;1.80;;;;;;;23.55;32.96;100574.88;1777658;78;20995;-68
2021/06/05 10:01:21;;;;;;;5.20;1.80;;;;;;;23.57;33.14;100571.25;1793585;78;21011;-69
2021/06/05 10:03:50;;;;;;;6.43;2.10;;;;;;;23.62;33.29;100561.45;1793473;78;21407;-69
2021/06/05 10:06:44;;;;;;;3.97;2.20;;;;;;;23.70;33.56;100557.62;1784248;79;21055;-68
2021/06/05 10:09:30;;;;;;;3.90;1.80;;;;;;;23.74;32.32;100560.66;1782211;78;21038;-69
2021/06/05 10:12:21;;;;;;;4.60;1.90;;;;;;;23.64;32.35;100556.45;1785427;79;21066;-68
2021/06/05 10:15:14;;;;;;;4.90;2.07;;;;;;;23.67;31.64;100550.09;1785906;78;21043;-67
2021/06/05 10:17:57;;;;;;;5.67;1.60;;;;;;;23.68;31.51;100557.12;1787596;78;21252;-68
2021/06/05 10:20:39;;;;;;;2.27;1.60;;;;;;;23.74;30.61;100553.05;1803375;78;20924;-68
2021/06/05 10:23:07;;;;;;;3.17;1.65;;;;;;;23.86;31.94;100544.84;1797225;78;21046;-69
2021/06/05 10:25:43;;;;;;;3.23;1.77;;;;;;;24.08;31.06;100542.89;1759391;79;21002;-69
2021/06/05 10:28:21;;;;;;;5.10;2.00;;;;;;;24.22;31.63;100534.87;1789259;79;21581;-69
2021/06/05 10:31:09;;;;;;;4.90;2.13;;;;;;;24.25;31.20;100536.35;1793104;79;20971;-69
2021/06/05 10:33:53;;;;;;;6.27;2.13;;;;;;;24.27;31.68;100543.60;1798827;78;21121;-68
2021/06/05 10:36:44;;;;;;;5.07;1.80;;;;;;;24.32;31.23;100537.90;1786246;78;21457;-68
2021/06/05 10:39:18;;;;;;;4.27;1.90;;;;;;;24.36;30.88;100518.87;1798061;78;21045;-68
2021/06/05 10:41:53;;;;;;;5.80;1.80;;;;;;;24.52;31.29;100526.54;1784827;78;21513;-68
2021/06/05 10:44:23;;;;;;;7.23;2.10;;;;;;;24.64;31.19;100527.01;1781583;78;20999;-68
2021/06/05 10:47:06;;;;;;;3.37;1.90;;;;;;;24.78;31.10;100521.13;1790285;78;21080;-69
2021/06/05 10:49:46;;;;;;;3.63;1.80;;;;;;;24.92;30.03;100525.55;1772345;78;21022;-68
2021/06/05 10:52:25;;;;;;;7.40;2.10;;;;;;;24.87;29.99;100524.44;1791168;78;21572;-69
2021/06/05 10:54:55;;;;;;;5.77;2.10;;;;;;;24.75;29.86;100519.88;1796935;78;20975;-69
2021/06/05 10:57:33;;;;;;;5.78;1.67;;;;;;;24.70;29.67;100531.64;1789982;78;21427;-69
2021/06/05 11:00:16;;;;;;;4.20;1.83;;;;;;;24.67;29.35;100527.67;1779964;78;21118;-68
2021/06/05 11:02:46;;;;;;;2.70;1.60;;;;;;;24.63;29.74;100546.49;1753532;78;20979;-69
2021/06/05 11:05:29;;;;;;;3.50;1.70;;;;;;;24.46;30.76;100529.88;1790528;78;21035;-68
2021/06/05 11:08:20;;;;;;;4.67;1.90;;;;;;;24.30;30.88;100529.26;1781516;78;21051;-69
2021/06/05 11:11:02;;;;;;;4.83;1.90;;;;;;;24.19;31.29;100539.11;1764172;79;21030;-69
2021/06/05 11:13:41;;;;;;;2.53;1.63;;;;;;;24.10;31.37;100526.19;1782024;78;21077;-68
2021/06/05 11:16:18;;;;;;;3.27;1.60;;;;;;;23.99;31.15;100542.28;1794709;78;21054;-69
2021/06/05 11:19:00;;;;;;;6.07;1.83;;;;;;;23.87;30.69;100547.78;1784747;78;21694;-67
2021/06/05 11:21:37;;;;;;;6.70;1.80;;;;;;;23.72;30.53;100541.11;1780350;78;21096;-69
2021/06/05 11:24:15;;;;;;;4.03;2.00;;;;;;;23.62;30.97;100541.57;1785508;78;21034;-67
2021/06/05 11:26:52;;;;;;;5.30;2.10;;;;;;;23.54;31.08;100543.30;1783456;78;21530;-68
2021/06/05 11:29:30;;;;;;;3.10;1.73;;;;;;;23.46;31.36;100545.61;1786041;78;21566;-67
2021/06/05 11:32:20;;;;;;;5.00;1.90;;;;;;;23.43;31.93;100538.12;1784368;78;20983;-68
2021/06/05 11:34:55;;;;;;;5.50;1.97;;;;;;;23.46;32.03;100536.61;1789202;78;21074;-72
2021/06/05 11:37:36;;;;;;;6.97;2.00;;;;;;;23.52;32.83;100536.60;1808382;77;21039;-75
2021/06/05 11:40:08;;;;;;;3.13;1.77;;;;;;;23.60;32.57;100527.51;1800674;78;21128;-72
2021/06/05 11:42:54;;;;;;;6.47;2.00;;;;;;;23.70;31.50;100528.98;1794299;78;29943;-75
2021/06/05 11:45:28;;;;;;;3.07;1.60;;;;;;;23.79;31.49;100528.25;1809911;77;20982;-76